• Join FlightAware (Why Join?)
  • Login
  • US Flag 
01:56PM EDT


 

Airport Tracker/Info


-or-


 

Live Flight TrackerFlight Track Log ✈ KBA204 ✈ 26-Apr-2013 ✈ CYEV - CYZF

Flight Track Log - Related Links

Times and Time Zones

All times are in EDT time to prevent confusion due to time zone crossing. See the KBA204 flight status page for this flight to view local times or setup timezone preferences in your user account.

Time Position Orientation Groundspeed Altitude Reporting Facility
EDT Latitude Longitude Course Direction KTS MPH feet Rate Location/Type
08:04PM 68.0874 -132.4391 119° Southeast  Level FlightAware Approximate
08:05PM 68.0519 -132.2683 119° Southeast  Level FlightAware Approximate
08:06PM 68.0163 -132.0980 118° Southeast  Level FlightAware Approximate
08:07PM 67.9821 -131.9257 118° Southeast  Level FlightAware Approximate
08:08PM 67.9479 -131.7540 118° Southeast  Level FlightAware Approximate
08:09PM 67.9134 -131.5827 118° Southeast  Level FlightAware Approximate
08:10PM 67.8782 -131.4127 119° Southeast  Level FlightAware Approximate
08:11PM 67.8426 -131.2436 119° Southeast  Level FlightAware Approximate
08:12PM 67.8055 -131.0770 121° Southeast  Level FlightAware Approximate
08:13PM 67.7679 -130.9116 121° Southeast  Level FlightAware Approximate
08:14PM 67.7309 -130.7454 120° Southeast  Level FlightAware Approximate
08:15PM 67.6944 -130.5787 120° Southeast  Level FlightAware Approximate
08:16PM 67.6577 -130.4125 120° Southeast  Level FlightAware Approximate
08:17PM 67.6209 -130.2469 120° Southeast  Level FlightAware Approximate
08:18PM 67.5839 -130.0817 120° Southeast  Level FlightAware Approximate
08:19PM 67.5467 -129.9171 121° Southeast  Level FlightAware Approximate
08:20PM 67.5094 -129.7530 121° Southeast  Level FlightAware Approximate
08:21PM 67.4719 -129.5894 121° Southeast  Level FlightAware Approximate
08:22PM 67.4342 -129.4263 121° Southeast  Level FlightAware Approximate
08:23PM 67.3964 -129.2637 121° Southeast  Level FlightAware Approximate
08:24PM 67.3584 -129.1017 121° Southeast  Level FlightAware Approximate
08:25PM 67.3203 -128.9401 121° Southeast  Level FlightAware Approximate
08:26PM 67.2820 -128.7791 122° Southeast  Level FlightAware Approximate
08:27PM 67.2435 -128.6186 122° Southeast  Level FlightAware Approximate
08:28PM 67.2048 -128.4586 122° Southeast  Level FlightAware Approximate
08:29PM 67.1661 -128.2991 122° Southeast  Level FlightAware Approximate
08:30PM 67.1271 -128.1402 122° Southeast  Level FlightAware Approximate
08:31PM 67.0880 -127.9817 122° Southeast  Level FlightAware Approximate
08:32PM 67.0487 -127.8238 122° Southeast  Level FlightAware Approximate
08:33PM 67.0093 -127.6664 123° Southeast  Level FlightAware Approximate
08:34PM 66.9697 -127.5095 123° Southeast  Level FlightAware Approximate
08:35PM 66.9300 -127.3530 123° Southeast  Level FlightAware Approximate
08:36PM 66.8901 -127.1971 123° Southeast  Level FlightAware Approximate
08:37PM 66.8501 -127.0417 123° Southeast  Level FlightAware Approximate
08:38PM 66.8099 -126.8869 123° Southeast  Level FlightAware Approximate
08:39PM 66.7695 -126.7325 123° Southeast  Level FlightAware Approximate
08:40PM 66.7291 -126.5786 124° Southeast  Level FlightAware Approximate
08:41PM 66.6884 -126.4253 124° Southeast  Level FlightAware Approximate
08:42PM 66.6476 -126.2724 124° Southeast  Level FlightAware Approximate
08:43PM 66.6067 -126.1201 124° Southeast  Level FlightAware Approximate
08:44PM 66.5656 -125.9682 124° Southeast  Level FlightAware Approximate
08:45PM 66.5244 -125.8169 124° Southeast  Level FlightAware Approximate
08:46PM 66.4830 -125.6660 124° Southeast  Level FlightAware Approximate
08:47PM 66.4415 -125.5157 125° Southeast  Level FlightAware Approximate
08:48PM 66.3998 -125.3658 125° Southeast  Level FlightAware Approximate
08:49PM 66.3580 -125.2165 125° Southeast  Level FlightAware Approximate
08:50PM 66.3161 -125.0676 125° Southeast  Level FlightAware Approximate
08:51PM 66.2740 -124.9193 125° Southeast  Level FlightAware Approximate
08:52PM 66.2317 -124.7714 125° Southeast  Level FlightAware Approximate
08:53PM 66.1894 -124.6241 125° Southeast  Level FlightAware Approximate
08:54PM 66.1469 -124.4772 126° Southeast  Level FlightAware Approximate
08:55PM 66.1042 -124.3308 126° Southeast  Level FlightAware Approximate
08:56PM 66.0614 -124.1850 126° Southeast  Level FlightAware Approximate
08:57PM 66.0185 -124.0396 126° Southeast  Level FlightAware Approximate
08:58PM 65.9754 -123.8947 126° Southeast  Level FlightAware Approximate
08:59PM 65.9322 -123.7503 126° Southeast  Level FlightAware Approximate
09:00PM 65.8889 -123.6064 126° Southeast  Level FlightAware Approximate
09:01PM 65.8454 -123.4629 126° Southeast  Level FlightAware Approximate
09:02PM 65.8018 -123.3200 127° Southeast  Level FlightAware Approximate
09:03PM 65.7581 -123.1775 127° Southeast  Level FlightAware Approximate
09:04PM 65.7142 -123.0355 127° Southeast  Level FlightAware Approximate
09:05PM 65.6702 -122.8940 127° Southeast  Level FlightAware Approximate
09:06PM 65.6261 -122.7530 127° Southeast  Level FlightAware Approximate
09:07PM 65.5818 -122.6124 127° Southeast  Level FlightAware Approximate
09:08PM 65.5374 -122.4724 127° Southeast  Level FlightAware Approximate
09:09PM 65.4929 -122.3328 128° Southeast  Level FlightAware Approximate
09:10PM 65.4483 -122.1937 128° Southeast  Level FlightAware Approximate
09:11PM 65.4035 -122.0550 128° Southeast  Level FlightAware Approximate
09:12PM 65.3586 -121.9169 128° Southeast  Level FlightAware Approximate
09:13PM 65.3136 -121.7792 128° Southeast  Level FlightAware Approximate
09:14PM 65.2684 -121.6420 128° Southeast  Level FlightAware Approximate
09:15PM 65.2232 -121.5052 128° Southeast  Level FlightAware Approximate
09:16PM 65.1778 -121.3689 128° Southeast  Level FlightAware Approximate
09:17PM 65.1322 -121.2331 129° Southeast  Level FlightAware Approximate
09:18PM 65.0866 -121.0977 129° Southeast  Level FlightAware Approximate
09:19PM 65.0408 -120.9629 129° Southeast  Level FlightAware Approximate
09:20PM 64.9949 -120.8284 129° Southeast  Level FlightAware Approximate
09:21PM 64.9489 -120.6945 129° Southeast  Level FlightAware Approximate
09:22PM 64.9028 -120.5609 129° Southeast  Level FlightAware Approximate
09:23PM 64.8566 -120.4279 129° Southeast  Level FlightAware Approximate
09:24PM 64.8102 -120.2953 129° Southeast  Level FlightAware Approximate
09:25PM 64.7637 -120.1632 129° Southeast  Level FlightAware Approximate
09:26PM 64.7171 -120.0315 130° Southeast  Level FlightAware Approximate
09:27PM 64.6703 -119.9004 130° Southeast  Level FlightAware Approximate
09:28PM 64.6234 -119.7698 130° Southeast  Level FlightAware Approximate
09:29PM 64.5764 -119.6396 130° Southeast  Level FlightAware Approximate
09:30PM 64.5292 -119.5099 130° Southeast  Level FlightAware Approximate
09:31PM 64.4820 -119.3807 130° Southeast  Level FlightAware Approximate
09:32PM 64.4346 -119.2519 130° Southeast  Level FlightAware Approximate
09:32PM 64.4500 -119.3167 131° Southeast 280 322 25,000  Level Edmonton Center
09:33PM 64.3871 -119.1235 131° Southeast  Level FlightAware Approximate
09:33PM 64.4000 -119.1667 128° Southeast 280 322 25,000  Level Edmonton Center
09:34PM 64.3395 -118.9956 131° Southeast  Level FlightAware Approximate
09:34PM 64.3500 -119.0333 131° Southeast 280 322 25,000  Level Edmonton Center
09:35PM 64.2918 -118.8681 131° Southeast  Level FlightAware Approximate
09:35PM 64.3000 -118.8833 128° Southeast 290 334 25,000  Level Edmonton Center
09:36PM 64.2440 -118.7411 131° Southeast  Level FlightAware Approximate
09:37PM 64.1960 -118.6145 131° Southeast  Level FlightAware Approximate
09:37PM 64.2113 -118.6489 131° Southeast  Level FlightAware Approximate
09:44PM 63.8723 -117.7754 131° Southeast  Level FlightAware Approximate
09:45PM 63.8234 -117.6523 132° Southeast  Level FlightAware Approximate
09:46PM 63.7745 -117.5297 132° Southeast  Level FlightAware Approximate
09:47PM 63.7254 -117.4075 132° Southeast  Level FlightAware Approximate
09:48PM 63.6763 -117.2857 132° Southeast  Level FlightAware Approximate
09:49PM 63.6270 -117.1643 132° Southeast  Level FlightAware Approximate
09:50PM 63.5776 -117.0434 132° Southeast  Level FlightAware Approximate
09:51PM 63.5283 -116.9225 132° Southeast  Level FlightAware Approximate
09:52PM 63.4790 -116.8019 132° Southeast  Level FlightAware Approximate
09:53PM 63.4295 -116.6818 133° Southeast  Level FlightAware Approximate
09:54PM 63.3800 -116.5621 133° Southeast  Level FlightAware Approximate
09:55PM 63.3303 -116.4428 133° Southeast  Level FlightAware Approximate
09:56PM 63.2803 -116.3243 133° Southeast  Level FlightAware Approximate
09:57PM 63.2303 -116.2063 133° Southeast  Level FlightAware Approximate
09:58PM 63.1801 -116.0886 133° Southeast  Level FlightAware Approximate
09:59PM 63.1298 -115.9714 133° Southeast  Level FlightAware Approximate
10:00PM 63.0795 -115.8546 134° Southeast  Level FlightAware Approximate
10:01PM 63.0290 -115.7382 134° Southeast  Level FlightAware Approximate
10:02PM 62.9789 -115.6213 129° Southeast  Level FlightAware Approximate
10:03PM 62.9325 -115.4974 129° Southeast  Level FlightAware Approximate
10:04PM 62.8860 -115.3737 129° Southeast  Level FlightAware Approximate
10:05PM 62.8326 -115.2647 137° Southeast  Level FlightAware Approximate
10:06PM 62.7788 -115.1569 138° Southeast  Level FlightAware Approximate
10:07PM 62.7248 -115.0495 138° Southeast  Level FlightAware Approximate
10:08PM 62.6775 -114.9286 129° Southeast  Level FlightAware Approximate
10:09PM 62.6313 -114.8055 129° Southeast  Level FlightAware Approximate
10:10PM 62.5800 -114.6932 137° Southeast  Level FlightAware Approximate
10:11PM 62.5249 -114.5893 141° Southeast  Level FlightAware Approximate
10:12PM 62.4705 -114.4846 131° Southeast  Level FlightAware Approximate
10:13PM 62.4628 -114.4403 131° Southeast  Level Estimated
10:14PM 62.4628 -114.4403 131° Southeast  Level Estimated
10:15PM 62.4628 -114.4403 131° Southeast  Level Estimated
10:16PM 62.4628 -114.4403 131° Southeast  Level Estimated
10:17PM 62.4628 -114.4403 131° Southeast  Level Estimated
10:18PM 62.4628 -114.4403 131° Southeast  Level Estimated
10:19PM 62.4628 -114.4403 131° Southeast  Level Estimated
10:20PM 62.4628 -114.4403 131° Southeast  Level Estimated
10:21PM 62.4628 -114.4403 131° Southeast  Level Estimated
10:22PM 62.4628 -114.4403 131° Southeast  Level Estimated
10:23PM 62.4628 -114.4403 131° Southeast  Level Estimated
10:24PM 62.4628 -114.4403 131° Southeast  Level Estimated
10:25PM 62.4628 -114.4403 131° Southeast  Level Estimated
10:26PM 62.4628 -114.4403 131° Southeast  Level Estimated
10:27PM 62.4628 -114.4403 131° Southeast  Level Estimated
10:28PM 62.4628 -114.4403 131° Southeast  Level Estimated